Time;durP1;ratioP1;P1;durP2;ratioP2;P2;SDS_P1;SDS_P2;PMS_P1;PMS_P2;Temp;Humidity;BMP_temperature;BMP_pressure;BME280_temperature;BME280_humidity;BME280_pressure;Samples;Min_cycle;Max_cycle;Signal;HPM_P1;HPM_P2
2020/12/09 00:01:30;;;;;;;33.22;17.85;;;;;;;1.95;75.00;94475.09;5094817;28;20052;-46
2020/12/09 00:04:00;;;;;;;33.00;17.63;;;;;;;1.96;74.65;94477.47;5094906;28;20055;-48
2020/12/09 00:06:35;;;;;;;34.42;17.83;;;;;;;1.86;75.43;94480.47;5094354;28;20070;-50
2020/12/09 00:09:04;;;;;;;37.38;18.15;;;;;;;1.97;74.53;94481.72;5094465;28;20051;-46
2020/12/09 00:11:32;;;;;;;31.80;16.73;;;;;;;1.93;74.76;94491.44;5094592;28;20079;-48
2020/12/09 00:13:59;;;;;;;35.03;18.42;;;;;;;1.89;74.89;94490.50;5094623;28;20056;-47
2020/12/09 00:16:26;;;;;;;33.97;17.85;;;;;;;1.87;74.87;94482.78;5093778;28;20056;-54
2020/12/09 00:18:53;;;;;;;33.95;17.98;;;;;;;1.70;75.47;94480.13;5094468;28;20055;-46
2020/12/09 00:21:21;;;;;;;36.05;18.85;;;;;;;1.82;74.69;94480.28;5094489;28;20168;-50
2020/12/09 00:23:49;;;;;;;36.47;18.25;;;;;;;1.55;75.71;94469.88;5095113;28;20448;-48
2020/12/09 00:26:26;;;;;;;37.65;20.63;;;;;;;1.68;75.62;94474.28;5093927;28;20093;-47
2020/12/09 00:28:54;;;;;;;36.08;18.13;;;;;;;1.92;74.37;94471.22;5094731;28;20101;-46
2020/12/09 00:31:26;;;;;;;35.03;19.05;;;;;;;1.51;76.12;94464.38;5094151;28;20498;-48
2020/12/09 00:33:53;;;;;;;32.25;18.55;;;;;;;1.63;75.31;94451.25;5094826;28;20517;-51
2020/12/09 00:36:22;;;;;;;33.47;17.67;;;;;;;1.66;75.15;94470.38;5093835;28;20052;-46
2020/12/09 00:38:50;;;;;;;37.00;18.98;;;;;;;1.70;75.02;94476.66;5094139;28;20062;-47
2020/12/09 00:41:19;;;;;;;35.53;18.13;;;;;;;1.79;74.65;94490.81;5094262;28;20052;-51
2020/12/09 00:43:47;;;;;;;34.47;18.23;;;;;;;1.91;74.01;94498.97;5094129;28;20505;-50
2020/12/09 00:46:25;;;;;;;36.90;18.90;;;;;;;1.61;75.37;94496.09;5093232;28;20512;-47
2020/12/09 00:48:55;;;;;;;37.05;18.33;;;;;;;1.63;75.30;94514.44;5093791;28;20101;-49
2020/12/09 00:51:25;;;;;;;36.47;19.25;;;;;;;1.69;75.01;94523.88;5092452;28;20091;-48
2020/12/09 00:53:54;;;;;;;36.13;19.48;;;;;;;1.56;75.14;94536.22;5093615;28;20066;-45
2020/12/09 00:56:25;;;;;;;33.90;18.88;;;;;;;1.86;74.36;94523.13;5091830;28;20052;-50
2020/12/09 00:58:52;;;;;;;35.75;19.00;;;;;;;1.63;74.65;94531.22;5092773;28;20056;-49
2020/12/09 01:01:20;;;;;;;35.47;19.20;;;;;;;1.61;74.84;94522.75;5092212;28;20046;-45
2020/12/09 01:03:53;;;;;;;35.42;19.67;;;;;;;1.64;74.90;94535.44;5092626;28;20390;-44
2020/12/09 01:06:19;;;;;;;33.80;17.80;;;;;;;1.79;74.27;94541.47;5092958;28;20143;-49
2020/12/09 01:08:45;;;;;;;37.08;18.75;;;;;;;1.55;75.29;94547.19;5093298;28;20532;-44
2020/12/09 01:11:12;;;;;;;34.30;18.75;;;;;;;1.36;75.75;94553.53;5093308;28;20044;-45
2020/12/09 01:13:44;;;;;;;37.60;19.52;;;;;;;1.59;74.85;94550.78;5093786;28;20136;-46
2020/12/09 01:16:14;;;;;;;34.60;17.73;;;;;;;1.50;75.12;94548.13;5092874;28;20044;-49
2020/12/09 01:18:44;;;;;;;34.30;17.80;;;;;;;1.69;74.24;94555.06;5093417;28;20436;-50
2020/12/09 01:21:10;;;;;;;33.50;18.38;;;;;;;1.68;74.45;94545.50;5092988;28;20131;-47
2020/12/09 01:23:36;;;;;;;34.72;18.00;;;;;;;1.45;75.21;94542.91;5093119;28;20480;-46
2020/12/09 01:26:09;;;;;;;37.42;18.98;;;;;;;1.61;74.59;94551.28;5092718;28;20540;-49
2020/12/09 01:28:36;;;;;;;36.72;18.92;;;;;;;1.38;75.35;94555.91;5093257;28;20058;-50
2020/12/09 01:31:02;;;;;;;35.03;19.25;;;;;;;1.47;74.67;94547.97;5092916;28;20044;-50
2020/12/09 01:33:28;;;;;;;35.15;18.15;;;;;;;1.49;75.00;94543.88;5091964;28;20302;-43
2020/12/09 01:35:55;;;;;;;35.60;18.92;;;;;;;1.52;75.23;94547.81;5092470;28;20097;-49
2020/12/09 01:38:21;;;;;;;35.75;18.77;;;;;;;1.51;74.80;94551.56;5093079;28;20079;-47
2020/12/09 01:40:47;;;;;;;34.13;18.05;;;;;;;1.51;74.87;94555.00;5092786;28;20051;-49
2020/12/09 01:43:14;;;;;;;36.25;18.90;;;;;;;1.71;74.05;94553.66;5092895;28;20048;-44
2020/12/09 01:45:41;;;;;;;36.20;19.85;;;;;;;1.71;73.84;94553.66;5092195;28;20232;-50
2020/12/09 01:48:09;;;;;;;36.22;18.17;;;;;;;1.75;74.31;94572.50;5092508;28;20424;-47
2020/12/09 01:50:36;;;;;;;34.92;18.30;;;;;;;1.98;73.32;94573.19;5091742;28;20488;-49
2020/12/09 01:53:03;;;;;;;35.53;18.55;;;;;;;1.78;73.92;94607.31;5091230;28;20138;-50
2020/12/09 01:55:30;;;;;;;35.13;18.77;;;;;;;1.73;73.82;94582.69;5092170;28;20437;-47
2020/12/09 01:57:56;;;;;;;35.65;18.02;;;;;;;1.76;73.90;94603.41;5092813;28;20055;-45
2020/12/09 02:00:22;;;;;;;35.25;18.38;;;;;;;1.81;74.66;94619.25;5091350;28;20056;-47
2020/12/09 02:02:50;;;;;;;33.53;17.75;;;;;;;1.85;74.33;94604.22;5092627;28;20066;-47
2020/12/09 02:05:17;;;;;;;34.80;19.35;;;;;;;1.85;74.19;94601.53;5092329;28;20135;-49
2020/12/09 02:07:43;;;;;;;33.40;18.38;;;;;;;1.91;74.25;94608.31;5090845;28;20135;-47
2020/12/09 02:10:14;;;;;;;34.08;18.38;;;;;;;2.04;74.11;94614.63;5074221;28;20051;-50
2020/12/09 02:12:41;;;;;;;35.08;18.40;;;;;;;2.09;73.40;94599.28;5092448;28;20075;-46
2020/12/09 02:15:08;;;;;;;34.30;17.35;;;;;;;1.54;74.33;94551.72;5092678;28;20051;-45
2020/12/09 02:17:34;;;;;;;32.58;18.48;;;;;;;1.86;74.60;94595.13;5091567;28;20052;-48
2020/12/09 02:20:01;;;;;;;31.65;17.90;;;;;;;1.43;75.96;94584.28;5091174;28;20489;-49
2020/12/09 02:22:28;;;;;;;32.13;17.73;;;;;;;1.56;75.52;94570.88;5092337;28;20048;-47
2020/12/09 02:24:55;;;;;;;31.98;16.80;;;;;;;1.63;75.34;94573.09;5092472;28;20083;-48
2020/12/09 02:27:21;;;;;;;33.45;18.33;;;;;;;1.56;75.92;94584.22;5091658;28;20052;-47
2020/12/09 02:29:48;;;;;;;32.90;18.27;;;;;;;1.64;75.71;94620.78;5091896;28;20073;-46
2020/12/09 02:32:14;;;;;;;36.67;18.65;;;;;;;1.48;76.37;94582.28;5091963;28;20052;-49
2020/12/09 02:34:40;;;;;;;32.45;17.23;;;;;;;1.70;75.94;94583.31;5092274;28;20047;-49
2020/12/09 02:37:07;;;;;;;34.22;18.85;;;;;;;1.88;74.92;94590.25;5091551;28;20077;-49
2020/12/09 02:39:35;;;;;;;34.67;18.17;;;;;;;1.82;75.21;94592.31;5092458;28;20126;-45
2020/12/09 02:42:02;;;;;;;33.17;18.33;;;;;;;1.94;74.75;94590.91;5091819;28;20054;-45
2020/12/09 02:44:29;;;;;;;30.88;17.50;;;;;;;1.99;74.10;94586.22;5090651;28;20044;-48
2020/12/09 02:46:55;;;;;;;33.22;17.60;;;;;;;2.10;73.87;94603.50;5091155;28;20047;-51
2020/12/09 02:49:22;;;;;;;33.75;18.73;;;;;;;2.11;74.23;94598.94;5091863;28;20071;-51
2020/12/09 02:51:50;;;;;;;31.67;17.85;;;;;;;2.07;74.07;94596.09;5091792;28;20409;-51
2020/12/09 02:54:18;;;;;;;30.73;17.67;;;;;;;2.00;74.69;94595.78;5090574;28;20071;-47
2020/12/09 02:56:44;;;;;;;32.38;17.92;;;;;;;1.79;75.57;94597.47;5091200;28;20076;-45
2020/12/09 02:59:11;;;;;;;33.53;18.23;;;;;;;1.87;75.08;94588.69;5090369;28;20106;-47
2020/12/09 03:01:37;;;;;;;33.08;18.60;;;;;;;1.94;75.23;94589.03;5092488;28;20051;-51
2020/12/09 03:04:04;;;;;;;34.67;18.17;;;;;;;1.90;74.98;94581.97;5098128;28;20132;-50
2020/12/09 03:06:30;;;;;;;29.38;17.33;;;;;;;1.51;75.80;94563.00;5097742;28;20044;-48
2020/12/09 03:08:57;;;;;;;36.10;19.58;;;;;;;1.53;76.46;94581.38;5098661;28;20040;-48
2020/12/09 03:11:24;;;;;;;34.05;18.50;;;;;;;1.81;75.75;94589.94;5097931;28;20048;-48
2020/12/09 03:13:50;;;;;;;30.95;18.17;;;;;;;1.74;75.72;94594.94;5098167;28;20126;-45
2020/12/09 03:16:17;;;;;;;31.15;17.15;;;;;;;1.61;75.70;94564.63;5097722;28;20047;-47
2020/12/09 03:18:44;;;;;;;32.80;18.23;;;;;;;1.76;75.75;94588.19;5097031;28;20056;-51
2020/12/09 03:21:10;;;;;;;32.15;17.75;;;;;;;1.81;75.67;94579.25;5098035;28;20416;-47
2020/12/09 03:23:37;;;;;;;34.30;19.55;;;;;;;1.74;76.02;94579.72;5096810;28;20044;-47
2020/12/09 03:26:05;;;;;;;34.55;17.85;;;;;;;1.70;75.90;94565.44;5097582;28;20138;-45
2020/12/09 03:28:34;;;;;;;33.05;18.50;;;;;;;1.73;76.20;94574.69;5097946;28;20472;-47
2020/12/09 03:31:02;;;;;;;33.72;17.95;;;;;;;1.75;75.68;94551.16;5098180;28;20059;-48
2020/12/09 03:33:28;;;;;;;32.42;18.20;;;;;;;1.70;76.09;94567.31;5097924;28;20134;-49
2020/12/09 03:35:55;;;;;;;32.53;18.20;;;;;;;1.70;76.21;94568.09;5097593;28;20490;-46
2020/12/09 03:38:21;;;;;;;33.15;19.00;;;;;;;1.80;75.68;94567.03;5098119;28;20467;-46
2020/12/09 03:40:48;;;;;;;34.78;19.45;;;;;;;1.61;76.49;94576.06;5098132;28;20044;-44
2020/12/09 03:43:15;;;;;;;31.27;18.40;;;;;;;1.57;76.55;94574.34;5097008;28;20052;-47
2020/12/09 03:45:42;;;;;;;31.25;18.85;;;;;;;1.87;75.32;94572.69;5097089;28;20052;-47
2020/12/09 03:48:08;;;;;;;33.83;19.38;;;;;;;1.81;75.81;94576.59;5098109;28;20094;-47
2020/12/09 03:50:35;;;;;;;33.28;18.50;;;;;;;1.86;75.72;94581.78;5097734;28;20048;-47
2020/12/09 03:53:02;;;;;;;34.55;19.48;;;;;;;1.83;75.54;94577.88;5097956;28;20048;-50
2020/12/09 03:55:28;;;;;;;31.65;17.67;;;;;;;1.33;74.86;94484.91;5097060;28;20080;-51
2020/12/09 03:57:59;;;;;;;32.50;18.33;;;;;;;1.97;75.06;94587.63;5097972;28;20079;-50
2020/12/09 04:00:25;;;;;;;32.70;18.35;;;;;;;2.01;74.75;94584.00;5098800;28;20058;-48
2020/12/09 04:02:51;;;;;;;34.35;19.00;;;;;;;1.42;75.36;94498.22;5098604;28;20052;-47
2020/12/09 04:05:18;;;;;;;32.67;18.58;;;;;;;1.92;74.71;94555.75;5098150;28;20072;-46
2020/12/09 04:07:44;;;;;;;31.08;17.83;;;;;;;1.75;75.34;94551.94;5097810;28;20054;-47
2020/12/09 04:10:10;;;;;;;31.98;18.25;;;;;;;1.96;74.71;94575.38;5097998;28;20052;-49
2020/12/09 04:12:37;;;;;;;32.28;19.08;;;;;;;2.04;74.67;94566.59;5096704;28;20142;-50
2020/12/09 04:15:04;;;;;;;31.75;17.45;;;;;;;1.94;75.25;94580.25;5093893;28;20400;-45
2020/12/09 04:17:31;;;;;;;32.38;17.15;;;;;;;2.08;74.66;94576.34;5093807;28;20056;-45
2020/12/09 04:19:57;;;;;;;32.75;18.98;;;;;;;2.08;74.33;94584.38;5094323;28;20357;-50
2020/12/09 04:22:24;;;;;;;33.33;18.27;;;;;;;1.84;75.69;94589.31;5094340;28;20127;-48
2020/12/09 04:24:50;;;;;;;33.03;18.50;;;;;;;1.97;74.90;94593.75;5094524;28;20114;-48
2020/12/09 04:27:17;;;;;;;32.65;18.40;;;;;;;1.83;75.41;94593.88;5093690;28;20126;-49
2020/12/09 04:29:43;;;;;;;31.80;18.00;;;;;;;1.84;75.36;94600.75;5094090;28;20131;-48
2020/12/09 04:32:10;;;;;;;31.98;17.67;;;;;;;2.04;74.88;94606.63;5094076;28;20056;-47
2020/12/09 04:34:36;;;;;;;34.15;18.80;;;;;;;1.91;75.34;94604.84;5093918;28;20052;-47
2020/12/09 04:37:03;;;;;;;32.72;18.42;;;;;;;2.17;74.32;94610.25;5092209;28;20058;-45
2020/12/09 04:39:30;;;;;;;34.10;18.77;;;;;;;2.03;74.60;94603.16;5092768;28;20052;-45
2020/12/09 04:41:56;;;;;;;36.08;19.55;;;;;;;2.10;74.36;94629.41;5093958;28;20105;-49
2020/12/09 04:44:24;;;;;;;35.85;19.92;;;;;;;1.99;74.86;94634.25;5094156;28;20055;-48
2020/12/09 04:46:52;;;;;;;33.63;18.75;;;;;;;2.10;74.71;94634.72;5093526;28;20056;-49
2020/12/09 04:49:23;;;;;;;33.90;18.38;;;;;;;2.10;74.77;94646.19;5093945;28;20044;-47
2020/12/09 04:52:11;;;;;;;29.65;17.17;;;;;;;2.06;75.13;94653.25;5093755;28;20451;-48
2020/12/09 04:54:39;;;;;;;32.55;18.42;;;;;;;2.30;74.04;94649.38;5093864;28;20444;-48
2020/12/09 04:57:19;;;;;;;33.20;18.33;;;;;;;2.27;74.34;94656.13;5093332;28;20109;-47
2020/12/09 04:59:58;;;;;;;33.92;18.60;;;;;;;2.30;74.42;94654.72;5093676;28;20572;-49
2020/12/09 05:02:54;;;;;;;35.53;20.15;;;;;;;2.38;74.08;94663.84;5093859;28;20052;-50
2020/12/09 05:05:24;;;;;;;31.70;18.08;;;;;;;2.25;74.43;94671.66;5093030;28;20043;-49
2020/12/09 05:07:52;;;;;;;33.90;18.40;;;;;;;2.12;74.69;94669.13;5093468;28;20052;-47
2020/12/09 05:10:24;;;;;;;32.28;19.02;;;;;;;2.18;75.14;94678.53;5093193;28;20104;-52
2020/12/09 05:12:53;;;;;;;34.38;18.52;;;;;;;2.17;74.83;94690.31;5093652;28;20105;-47
2020/12/09 05:15:22;;;;;;;38.88;20.65;;;;;;;2.04;75.04;94684.78;5093219;28;20055;-46
2020/12/09 05:18:07;;;;;;;37.28;19.23;;;;;;;2.14;75.18;94680.25;5093519;28;20056;-46
2020/12/09 05:20:36;;;;;;;38.75;20.83;;;;;;;2.02;75.54;94692.31;5093304;28;20173;-46
2020/12/09 05:23:05;;;;;;;37.05;19.63;;;;;;;2.18;75.17;94683.88;5093088;28;20135;-43
2020/12/09 05:25:32;;;;;;;36.60;19.35;;;;;;;2.24;74.91;94693.31;5091918;28;20413;-48
2020/12/09 05:27:59;;;;;;;41.42;19.70;;;;;;;1.92;75.37;94662.44;5093316;28;20059;-45
2020/12/09 05:30:51;;;;;;;38.47;19.60;;;;;;;2.36;74.50;94696.19;5092830;28;20044;-46
2020/12/09 05:33:29;;;;;;;35.90;18.75;;;;;;;2.34;74.33;94693.84;5093020;28;20058;-47
2020/12/09 05:36:00;;;;;;;37.92;19.45;;;;;;;2.15;75.30;94689.84;5091112;28;20052;-46
2020/12/09 05:38:28;;;;;;;35.83;19.08;;;;;;;2.12;75.33;94688.59;5092882;28;20048;-47
2020/12/09 05:40:55;;;;;;;38.45;20.05;;;;;;;2.26;74.83;94686.56;5093177;28;20052;-47
2020/12/09 05:43:22;;;;;;;40.78;21.33;;;;;;;2.31;74.58;94699.78;5091592;28;20130;-48
2020/12/09 05:45:49;;;;;;;38.75;21.02;;;;;;;2.12;75.27;94696.59;5090933;28;20054;-45
2020/12/09 05:48:23;;;;;;;38.22;20.27;;;;;;;2.13;75.67;94703.50;5092551;28;20052;-46
2020/12/09 05:51:04;;;;;;;38.78;20.33;;;;;;;2.07;75.89;94686.81;5092817;28;20418;-47
2020/12/09 05:53:32;;;;;;;41.70;20.92;;;;;;;2.12;75.88;94687.81;5093028;28;20150;-50
2020/12/09 05:56:12;;;;;;;44.33;21.38;;;;;;;2.26;75.30;94685.78;5092438;28;20078;-50
2020/12/09 05:58:42;;;;;;;42.58;21.77;;;;;;;1.98;76.06;94670.03;5092814;28;20087;-48
2020/12/09 06:01:26;;;;;;;41.17;21.13;;;;;;;2.01;76.67;94682.72;5092736;28;20068;-49
2020/12/09 06:03:55;;;;;;;39.35;20.30;;;;;;;2.13;76.10;94689.38;5092839;28;20052;-48
2020/12/09 06:06:29;;;;;;;42.53;21.80;;;;;;;2.01;76.78;94690.72;5091561;28;20048;-51
2020/12/09 06:08:57;;;;;;;41.75;21.50;;;;;;;2.08;76.16;94680.41;5092458;28;20055;-48
2020/12/09 06:11:30;;;;;;;44.70;20.83;;;;;;;2.05;76.62;94690.91;5092000;28;20048;-46
2020/12/09 06:13:57;;;;;;;41.28;22.15;;;;;;;2.15;76.22;94684.53;5092232;28;20059;-47
2020/12/09 06:16:24;;;;;;;42.60;21.98;;;;;;;1.95;76.49;94686.63;5091427;28;20056;-47
2020/12/09 06:18:53;;;;;;;41.63;21.02;;;;;;;2.06;76.47;94687.94;5092028;28;20048;-48
2020/12/09 06:21:20;;;;;;;38.80;20.75;;;;;;;2.01;76.81;94684.59;5090885;28;20052;-47
2020/12/09 06:23:53;;;;;;;43.08;21.42;;;;;;;1.93;77.31;94682.69;5092335;28;20051;-45
2020/12/09 06:26:20;;;;;;;45.47;22.15;;;;;;;2.00;77.26;94696.38;5091401;28;20067;-47
2020/12/09 06:28:48;;;;;;;44.60;21.88;;;;;;;1.78;78.35;94686.53;5092168;28;20048;-49
2020/12/09 06:31:17;;;;;;;49.15;23.52;;;;;;;1.69;79.00;94686.53;5090723;28;20119;-48
2020/12/09 06:33:45;;;;;;;51.83;23.83;;;;;;;1.81;78.35;94692.03;5092265;28;20052;-46
2020/12/09 06:36:26;;;;;;;47.60;22.35;;;;;;;1.81;78.53;94688.59;5090804;28;20225;-48
2020/12/09 06:39:07;;;;;;;50.92;23.75;;;;;;;1.94;78.31;94693.06;5092093;28;20501;-45
2020/12/09 06:41:35;;;;;;;52.38;25.95;;;;;;;1.77;78.62;94680.44;5092160;28;20160;-48
2020/12/09 06:44:06;;;;;;;56.92;25.27;;;;;;;1.50;80.43;94689.41;5092227;28;20059;-49
2020/12/09 06:46:52;;;;;;;49.63;24.10;;;;;;;1.61;80.09;94693.34;5090532;28;20064;-47
2020/12/09 06:49:27;;;;;;;52.85;24.25;;;;;;;1.66;80.05;94697.78;5092183;28;20059;-45
2020/12/09 06:51:59;;;;;;;52.88;25.98;;;;;;;1.70;79.24;94682.75;5090802;28;20112;-50
2020/12/09 06:54:50;;;;;;;52.33;25.10;;;;;;;1.54;80.54;94693.00;5092141;28;20048;-45
2020/12/09 06:57:23;;;;;;;52.95;25.25;;;;;;;1.88;79.20;94704.94;5091720;28;20083;-47
2020/12/09 06:59:51;;;;;;;;;;;;;;;2.13;78.12;94708.03;5092900;28;20060;-49
2020/12/09 07:02:29;;;;;;;50.75;23.95;;;;;;;1.97;77.86;94689.78;5092211;28;19967;-47
2020/12/09 07:04:55;;;;;;;56.47;26.42;;;;;;;2.04;78.56;94711.44;5090646;28;20052;-46
2020/12/09 07:07:29;;;;;;;58.60;26.05;;;;;;;1.45;78.65;94625.53;5090339;28;20078;-46
2020/12/09 07:09:57;;;;;;;52.38;24.42;;;;;;;1.94;77.59;94681.59;5090574;28;20052;-46
2020/12/09 07:12:25;;;;;;;57.03;25.67;;;;;;;2.30;77.09;94708.09;5091784;28;20135;-50
2020/12/09 07:15:01;;;;;;;49.13;24.40;;;;;;;2.13;77.46;94692.81;5074013;28;20497;-49
2020/12/09 07:17:29;;;;;;;53.30;24.40;;;;;;;2.04;78.03;94708.78;5090726;28;20048;-51
2020/12/09 07:19:56;;;;;;;49.65;24.52;;;;;;;2.29;77.27;94725.22;5091402;28;20055;-50
2020/12/09 07:22:23;;;;;;;51.72;25.40;;;;;;;2.20;77.49;94724.38;5092138;28;20063;-48
2020/12/09 07:24:51;;;;;;;52.42;24.08;;;;;;;2.24;77.35;94739.50;5091753;28;20067;-50
2020/12/09 07:27:20;;;;;;;53.80;25.83;;;;;;;2.25;77.65;94737.59;5090997;28;20052;-46
2020/12/09 07:29:49;;;;;;;53.85;25.20;;;;;;;2.11;77.70;94708.34;5091993;28;20044;-46
2020/12/09 07:32:20;;;;;;;59.17;26.17;;;;;;;2.36;77.58;94738.09;5091317;28;20511;-47
2020/12/09 07:34:54;;;;;;;63.53;28.27;;;;;;;2.39;77.63;94748.16;5091368;28;20072;-47
2020/12/09 07:37:22;;;;;;;55.83;25.70;;;;;;;2.56;76.63;94750.88;5090922;28;20087;-45
2020/12/09 07:39:52;;;;;;;64.28;26.75;;;;;;;2.24;78.15;94746.69;5090232;28;20089;-48
2020/12/09 07:42:22;;;;;;;56.08;25.77;;;;;;;2.26;78.51;94752.50;5090353;28;20047;-49
2020/12/09 07:44:51;;;;;;;51.97;23.33;;;;;;;2.37;77.73;94751.13;5091898;28;20074;-44
2020/12/09 07:47:26;;;;;;;57.45;26.05;;;;;;;2.40;77.61;94750.50;5091512;28;20101;-49
2020/12/09 07:50:05;;;;;;;51.78;23.52;;;;;;;2.35;77.92;94734.66;5094276;28;20497;-45
2020/12/09 07:52:33;;;;;;;55.58;24.67;;;;;;;2.61;76.71;94744.63;5095190;28;20051;-52
2020/12/09 07:55:04;;;;;;;60.40;25.80;;;;;;;2.32;78.32;94749.41;5094710;28;20147;-51
2020/12/09 07:57:35;;;;;;;63.20;26.08;;;;;;;2.49;77.63;94746.00;5094529;28;20044;-47
2020/12/09 08:00:06;;;;;;;53.17;25.50;;;;;;;2.32;77.54;94749.41;5095069;28;20154;-45
2020/12/09 08:02:43;;;;;;;54.92;27.55;;;;;;;2.27;78.40;94752.19;5095303;28;20048;-47
2020/12/09 08:05:20;;;;;;;54.10;24.25;;;;;;;2.56;77.51;94754.34;5095039;28;20531;-50
2020/12/09 08:07:59;;;;;;;64.97;27.20;;;;;;;2.47;77.80;94766.09;5095014;28;20052;-48
2020/12/09 08:10:29;;;;;;;57.10;25.67;;;;;;;2.57;77.63;94752.47;5094837;28;20051;-48
2020/12/09 08:13:05;;;;;;;53.88;24.52;;;;;;;2.44;77.84;94756.84;5094978;28;20421;-47
2020/12/09 08:15:33;;;;;;;54.38;25.08;;;;;;;2.33;78.11;94766.19;5094026;28;20424;-48
2020/12/09 08:18:00;;;;;;;53.03;24.55;;;;;;;2.53;77.57;94768.31;5094550;28;20126;-47
2020/12/09 08:20:26;;;;;;;56.00;24.60;;;;;;;2.34;78.36;94773.13;5094577;28;20470;-44
2020/12/09 08:22:53;;;;;;;58.25;28.77;;;;;;;2.34;78.36;94767.78;5094787;28;20457;-47
2020/12/09 08:25:20;;;;;;;57.58;26.25;;;;;;;2.22;78.47;94764.91;5094044;28;20406;-47
2020/12/09 08:27:48;;;;;;;55.47;25.42;;;;;;;2.06;79.22;94767.97;5094719;28;20048;-50
2020/12/09 08:30:20;;;;;;;56.80;25.38;;;;;;;2.06;79.66;94773.31;5094474;28;20169;-47
2020/12/09 08:33:16;;;;;;;58.40;25.02;;;;;;;2.21;79.20;94774.00;5094812;28;20058;-50
2020/12/09 08:35:42;;;;;;;60.90;25.48;;;;;;;2.21;79.12;94768.66;5093890;28;20438;-45
2020/12/09 08:38:10;;;;;;;56.22;24.63;;;;;;;2.14;79.47;94773.66;5094235;28;20059;-46
2020/12/09 08:41:00;;;;;;;56.58;27.17;;;;;;;2.26;79.17;94777.31;5094473;28;20113;-44
2020/12/09 08:43:32;;;;;;;60.72;25.98;;;;;;;2.23;79.06;94777.16;5093270;28;20044;-47
2020/12/09 08:45:59;;;;;;;62.70;26.48;;;;;;;2.46;77.94;94775.97;5094152;28;20109;-49
2020/12/09 08:48:25;;;;;;;58.90;26.80;;;;;;;2.25;78.83;94773.09;5094652;28;20463;-47
2020/12/09 08:50:53;;;;;;;51.88;25.90;;;;;;;2.25;78.54;94791.75;5059762;28;20048;-46
2020/12/09 08:53:20;;;;;;;56.67;26.08;;;;;;;2.27;78.54;94794.91;5094182;28;20102;-47
2020/12/09 08:55:48;;;;;;;55.90;24.67;;;;;;;2.29;78.65;94786.59;5092553;28;20079;-49
2020/12/09 08:58:16;;;;;;;57.72;26.20;;;;;;;2.14;79.08;94803.00;5094410;28;20155;-46
2020/12/09 09:00:44;;;;;;;57.42;26.90;;;;;;;2.37;77.81;94780.50;5093959;28;20048;-45
2020/12/09 09:03:15;;;;;;;63.97;27.23;;;;;;;2.08;79.02;94797.00;5094207;28;20048;-52
2020/12/09 09:05:45;;;;;;;68.15;27.15;;;;;;;1.97;79.51;94780.47;5093574;28;20059;-47
2020/12/09 09:08:14;;;;;;;72.22;27.33;;;;;;;2.14;79.20;94784.31;5094384;28;20170;-46
2020/12/09 09:10:42;;;;;;;59.92;25.67;;;;;;;2.38;78.39;94795.44;5092820;28;20040;-46
2020/12/09 09:13:09;;;;;;;65.80;26.58;;;;;;;2.16;79.16;94790.16;5093610;28;20600;-45
2020/12/09 09:15:36;;;;;;;61.60;25.98;;;;;;;2.23;78.71;94782.47;5093170;28;20654;-48
2020/12/09 09:18:04;;;;;;;59.72;24.80;;;;;;;2.28;78.88;94785.81;5094127;28;20087;-47
2020/12/09 09:20:31;;;;;;;62.28;27.10;;;;;;;2.04;79.33;94786.16;5075774;28;20044;-50
2020/12/09 09:22:59;;;;;;;58.20;26.77;;;;;;;2.36;78.61;94796.84;5093901;28;20441;-48
2020/12/09 09:25:25;;;;;;;60.15;25.25;;;;;;;2.18;79.31;94818.09;5092642;28;20052;-51
2020/12/09 09:27:52;;;;;;;58.35;25.98;;;;;;;2.17;79.18;94789.81;5059341;28;20101;-48
2020/12/09 09:30:21;;;;;;;58.72;25.70;;;;;;;2.39;78.71;94818.34;5093480;28;20040;-50
2020/12/09 09:32:49;;;;;;;59.50;26.23;;;;;;;2.40;77.85;94793.22;5093554;28;20059;-46
2020/12/09 09:35:17;;;;;;;59.25;26.33;;;;;;;2.56;77.92;94806.94;5092552;28;20105;-47
2020/12/09 09:37:45;;;;;;;64.07;25.42;;;;;;;2.32;77.68;94796.66;5093863;28;20056;-47
2020/12/09 09:40:12;;;;;;;65.47;26.00;;;;;;;2.34;78.89;94799.81;5093627;28;20048;-51
2020/12/09 09:42:40;;;;;;;57.97;25.65;;;;;;;2.38;78.43;94798.09;5075431;28;20556;-46
2020/12/09 09:45:08;;;;;;;67.00;26.65;;;;;;;2.47;78.07;94795.44;5093463;28;20112;-48
2020/12/09 09:47:35;;;;;;;65.00;27.05;;;;;;;2.10;78.91;94774.25;5093414;28;20051;-49
2020/12/09 09:50:04;;;;;;;60.80;26.60;;;;;;;2.29;78.86;94794.59;5093709;28;20052;-47
2020/12/09 09:52:30;;;;;;;64.72;26.42;;;;;;;2.30;78.72;94788.16;5094228;28;20117;-52
2020/12/09 09:54:56;;;;;;;58.22;25.73;;;;;;;2.41;78.50;94783.34;5094172;28;20131;-46
2020/12/09 09:57:23;;;;;;;62.40;26.02;;;;;;;2.32;78.73;94788.66;5092366;28;20104;-48
2020/12/09 09:59:49;;;;;;;57.65;25.95;;;;;;;2.22;79.09;94783.59;5093458;28;20059;-48
2020/12/09 10:02:16;;;;;;;65.88;25.85;;;;;;;2.30;78.97;94786.28;5092764;28;20547;-50
2020/12/09 10:04:42;;;;;;;68.53;28.55;;;;;;;2.43;78.29;94776.59;5092796;28;20063;-49
2020/12/09 10:07:09;;;;;;;56.67;26.65;;;;;;;2.44;78.11;94801.41;5092517;28;20398;-46
2020/12/09 10:09:40;;;;;;;57.58;25.05;;;;;;;2.26;79.41;94787.22;5093019;28;20113;-48
2020/12/09 10:12:06;;;;;;;54.90;24.95;;;;;;;2.23;79.28;94788.59;5092642;28;20086;-46
2020/12/09 10:14:33;;;;;;;59.72;26.58;;;;;;;2.30;78.88;94764.91;5092925;28;20052;-46
2020/12/09 10:17:01;;;;;;;55.58;25.27;;;;;;;2.12;79.64;94781.19;5092488;28;20497;-51
2020/12/09 10:19:27;;;;;;;52.35;23.70;;;;;;;2.25;79.33;94786.44;5092134;28;20285;-45
2020/12/09 10:21:59;;;;;;;55.88;24.63;;;;;;;2.07;78.95;94748.19;5093494;28;20040;-49
2020/12/09 10:24:26;;;;;;;60.28;25.38;;;;;;;2.24;79.19;94794.72;5093907;28;20134;-50
2020/12/09 10:26:53;;;;;;;54.75;24.63;;;;;;;2.45;78.60;94798.44;5091300;28;20052;-50
2020/12/09 10:29:21;;;;;;;49.28;23.48;;;;;;;2.23;78.81;94777.94;5092701;28;20484;-48
2020/12/09 10:31:49;;;;;;;53.28;23.80;;;;;;;2.05;80.21;94773.63;5093121;28;20144;-47
2020/12/09 10:34:18;;;;;;;49.25;23.27;;;;;;;1.95;79.64;94748.00;5091449;28;20102;-48
2020/12/09 10:36:50;;;;;;;56.85;25.17;;;;;;;2.17;79.65;94770.38;5090984;28;20048;-45
2020/12/09 10:39:19;;;;;;;48.72;23.30;;;;;;;1.88;80.39;94774.28;5092518;28;20074;-46
2020/12/09 10:41:46;;;;;;;54.55;24.35;;;;;;;1.91;80.76;94764.91;5091069;28;20044;-47
2020/12/09 10:44:16;;;;;;;54.85;23.77;;;;;;;2.02;80.38;94764.34;5092483;28;20047;-48
2020/12/09 10:46:43;;;;;;;51.30;23.80;;;;;;;2.21;79.31;94760.63;5090615;28;20504;-51
2020/12/09 10:49:11;;;;;;;50.17;24.23;;;;;;;2.16;79.67;94763.47;5091363;28;20097;-47
2020/12/09 10:51:48;;;;;;;47.22;22.35;;;;;;;2.31;78.99;94763.84;5092576;28;20044;-46
2020/12/09 10:54:20;;;;;;;46.80;22.17;;;;;;;2.27;79.13;94768.22;5092298;28;20044;-48
2020/12/09 10:56:46;;;;;;;55.30;23.48;;;;;;;2.17;79.27;94767.69;5092068;28;20052;-49
2020/12/09 10:59:17;;;;;;;47.20;21.05;;;;;;;2.25;78.79;94758.97;5092948;28;20051;-44
2020/12/09 11:01:44;;;;;;;45.90;21.00;;;;;;;1.97;80.17;94769.78;5091562;28;20044;-47
2020/12/09 11:04:12;;;;;;;47.33;21.25;;;;;;;1.94;80.48;94759.72;5092377;28;20044;-48
2020/12/09 11:06:39;;;;;;;46.67;22.08;;;;;;;2.03;79.66;94741.91;5091411;28;20072;-45
2020/12/09 11:09:21;;;;;;;44.97;21.55;;;;;;;2.12;79.15;94757.97;5092699;28;20048;-47
2020/12/09 11:11:48;;;;;;;44.88;21.35;;;;;;;1.83;80.41;94753.09;5093702;28;20052;-46
2020/12/09 11:14:15;;;;;;;44.17;20.80;;;;;;;1.85;80.74;94743.69;5093124;28;20068;-49
2020/12/09 11:16:42;;;;;;;44.20;21.52;;;;;;;1.82;80.75;94746.97;5091462;28;20051;-50
2020/12/09 11:19:09;;;;;;;48.85;20.88;;;;;;;1.85;81.13;94750.91;5090637;28;20071;-50
2020/12/09 11:21:39;;;;;;;42.97;20.75;;;;;;;1.82;80.79;94751.50;5092608;28;20494;-50
2020/12/09 11:24:06;;;;;;;52.95;21.95;;;;;;;1.93;80.66;94750.16;5095465;28;20233;-47
2020/12/09 11:26:32;;;;;;;46.03;21.73;;;;;;;1.86;80.85;94733.81;5094439;28;20052;-47
2020/12/09 11:28:59;;;;;;;44.97;22.50;;;;;;;2.08;80.40;94741.78;5096266;28;20055;-48
2020/12/09 11:31:27;;;;;;;39.30;20.77;;;;;;;1.91;80.43;94739.00;5096012;28;20097;-48
2020/12/09 11:33:53;;;;;;;41.35;21.52;;;;;;;2.06;79.90;94749.28;5095626;28;20549;-47
2020/12/09 11:36:25;;;;;;;36.63;19.25;;;;;;;1.98;80.07;94747.38;5094336;28;20526;-45